sensor_id;sensor_type;location;lat;lon;timestamp;P1;durP1;ratioP1;P2;durP2;ratioP2
13959;SDS011;7052;51.050;3.716;2023-06-24T00:00:15;7.38;;;6.68;;
13959;SDS011;7052;51.050;3.716;2023-06-24T00:02:44;10.18;;;7.03;;
13959;SDS011;7052;51.050;3.716;2023-06-24T00:05:13;9.15;;;6.30;;
13959;SDS011;7052;51.050;3.716;2023-06-24T00:07:40;6.18;;;5.57;;
13959;SDS011;7052;51.050;3.716;2023-06-24T00:10:12;8.07;;;6.53;;
13959;SDS011;7052;51.050;3.716;2023-06-24T00:12:39;8.30;;;6.82;;
13959;SDS011;7052;51.050;3.716;2023-06-24T00:15:08;8.00;;;6.03;;
13959;SDS011;7052;51.050;3.716;2023-06-24T00:17:35;6.13;;;5.53;;
13959;SDS011;7052;51.050;3.716;2023-06-24T00:20:02;7.18;;;5.38;;
13959;SDS011;7052;51.050;3.716;2023-06-24T00:22:35;5.95;;;5.35;;
13959;SDS011;7052;51.050;3.716;2023-06-24T00:25:09;7.25;;;6.53;;
13959;SDS011;7052;51.050;3.716;2023-06-24T00:27:38;5.75;;;5.15;;
13959;SDS011;7052;51.050;3.716;2023-06-24T00:30:05;6.43;;;5.50;;
13959;SDS011;7052;51.050;3.716;2023-06-24T00:32:33;7.63;;;5.78;;
13959;SDS011;7052;51.050;3.716;2023-06-24T00:35:04;10.35;;;8.65;;
13959;SDS011;7052;51.050;3.716;2023-06-24T00:37:31;8.43;;;5.70;;
13959;SDS011;7052;51.050;3.716;2023-06-24T00:39:58;6.65;;;5.55;;
13959;SDS011;7052;51.050;3.716;2023-06-24T00:42:27;6.57;;;5.18;;
13959;SDS011;7052;51.050;3.716;2023-06-24T00:44:55;6.57;;;5.80;;
13959;SDS011;7052;51.050;3.716;2023-06-24T00:47:23;5.88;;;4.63;;
13959;SDS011;7052;51.050;3.716;2023-06-24T00:49:49;6.00;;;5.40;;
13959;SDS011;7052;51.050;3.716;2023-06-24T00:52:19;6.65;;;5.03;;
13959;SDS011;7052;51.050;3.716;2023-06-24T00:54:46;5.88;;;5.13;;
13959;SDS011;7052;51.050;3.716;2023-06-24T00:57:13;5.60;;;5.00;;
13959;SDS011;7052;51.050;3.716;2023-06-24T00:59:40;5.25;;;4.75;;
13959;SDS011;7052;51.050;3.716;2023-06-24T01:02:10;6.25;;;5.25;;
13959;SDS011;7052;51.050;3.716;2023-06-24T01:04:38;5.47;;;4.97;;
13959;SDS011;7052;51.050;3.716;2023-06-24T01:07:05;7.25;;;5.13;;
13959;SDS011;7052;51.050;3.716;2023-06-24T01:09:32;7.30;;;4.93;;
13959;SDS011;7052;51.050;3.716;2023-06-24T01:12:01;5.82;;;5.15;;
13959;SDS011;7052;51.050;3.716;2023-06-24T01:14:28;5.80;;;5.20;;
13959;SDS011;7052;51.050;3.716;2023-06-24T01:16:56;5.53;;;4.85;;
13959;SDS011;7052;51.050;3.716;2023-06-24T01:25:33;5.88;;;5.18;;
13959;SDS011;7052;51.050;3.716;2023-06-24T01:28:19;6.00;;;5.13;;
13959;SDS011;7052;51.050;3.716;2023-06-24T01:31:02;6.00;;;5.40;;
13959;SDS011;7052;51.050;3.716;2023-06-24T01:34:14;8.48;;;7.60;;
13959;SDS011;7052;51.050;3.716;2023-06-24T01:36:47;9.68;;;8.27;;
13959;SDS011;7052;51.050;3.716;2023-06-24T01:39:20;9.68;;;8.68;;
13959;SDS011;7052;51.050;3.716;2023-06-24T01:41:51;8.82;;;7.32;;
13959;SDS011;7052;51.050;3.716;2023-06-24T01:44:25;8.88;;;7.90;;
13959;SDS011;7052;51.050;3.716;2023-06-24T01:47:01;6.70;;;6.00;;
13959;SDS011;7052;51.050;3.716;2023-06-24T01:49:33;6.82;;;5.63;;
13959;SDS011;7052;51.050;3.716;2023-06-24T01:52:04;5.63;;;5.13;;
13959;SDS011;7052;51.050;3.716;2023-06-24T01:54:34;7.13;;;4.97;;
13959;SDS011;7052;51.050;3.716;2023-06-24T01:57:06;7.80;;;5.70;;
13959;SDS011;7052;51.050;3.716;2023-06-24T01:59:35;7.47;;;5.82;;
13959;SDS011;7052;51.050;3.716;2023-06-24T02:02:06;6.72;;;5.45;;
13959;SDS011;7052;51.050;3.716;2023-06-24T02:04:35;6.20;;;5.57;;
13959;SDS011;7052;51.050;3.716;2023-06-24T02:07:04;6.00;;;5.20;;
13959;SDS011;7052;51.050;3.716;2023-06-24T02:09:36;7.45;;;5.68;;
13959;SDS011;7052;51.050;3.716;2023-06-24T02:12:04;7.32;;;5.97;;
13959;SDS011;7052;51.050;3.716;2023-06-24T02:14:34;6.10;;;5.50;;
13959;SDS011;7052;51.050;3.716;2023-06-24T02:17:04;6.25;;;5.65;;
13959;SDS011;7052;51.050;3.716;2023-06-24T02:19:35;7.93;;;6.20;;
13959;SDS011;7052;51.050;3.716;2023-06-24T02:22:04;6.45;;;5.63;;
13959;SDS011;7052;51.050;3.716;2023-06-24T02:24:34;6.32;;;5.65;;
13959;SDS011;7052;51.050;3.716;2023-06-24T02:27:03;7.60;;;5.60;;
13959;SDS011;7052;51.050;3.716;2023-06-24T02:29:31;7.53;;;5.82;;
13959;SDS011;7052;51.050;3.716;2023-06-24T02:31:59;6.53;;;5.80;;
13959;SDS011;7052;51.050;3.716;2023-06-24T02:34:26;7.40;;;5.90;;
13959;SDS011;7052;51.050;3.716;2023-06-24T02:36:56;6.68;;;5.97;;
13959;SDS011;7052;51.050;3.716;2023-06-24T02:39:22;6.90;;;6.18;;
13959;SDS011;7052;51.050;3.716;2023-06-24T02:41:49;6.75;;;6.05;;
13959;SDS011;7052;51.050;3.716;2023-06-24T02:44:17;8.52;;;6.40;;
13959;SDS011;7052;51.050;3.716;2023-06-24T02:46:51;6.05;;;5.40;;
13959;SDS011;7052;51.050;3.716;2023-06-24T02:49:22;6.97;;;6.00;;
13959;SDS011;7052;51.050;3.716;2023-06-24T02:51:50;9.57;;;6.30;;
13959;SDS011;7052;51.050;3.716;2023-06-24T02:54:18;6.65;;;5.95;;
13959;SDS011;7052;51.050;3.716;2023-06-24T02:56:46;6.80;;;6.10;;
13959;SDS011;7052;51.050;3.716;2023-06-24T02:59:14;6.85;;;6.15;;
13959;SDS011;7052;51.050;3.716;2023-06-24T03:01:41;10.20;;;6.35;;
13959;SDS011;7052;51.050;3.716;2023-06-24T03:04:10;7.28;;;6.57;;
13959;SDS011;7052;51.050;3.716;2023-06-24T03:06:41;6.45;;;5.85;;
13959;SDS011;7052;51.050;3.716;2023-06-24T03:09:09;6.90;;;6.20;;
13959;SDS011;7052;51.050;3.716;2023-06-24T03:11:42;8.35;;;5.82;;
13959;SDS011;7052;51.050;3.716;2023-06-24T03:14:09;7.82;;;6.05;;
13959;SDS011;7052;51.050;3.716;2023-06-24T03:16:36;13.38;;;7.38;;
13959;SDS011;7052;51.050;3.716;2023-06-24T03:19:04;8.40;;;6.45;;
13959;SDS011;7052;51.050;3.716;2023-06-24T03:21:32;7.47;;;6.63;;
13959;SDS011;7052;51.050;3.716;2023-06-24T03:23:59;9.55;;;6.47;;
13959;SDS011;7052;51.050;3.716;2023-06-24T03:26:32;7.50;;;6.38;;
13959;SDS011;7052;51.050;3.716;2023-06-24T03:29:01;8.00;;;7.20;;
13959;SDS011;7052;51.050;3.716;2023-06-24T03:31:29;12.18;;;7.15;;
13959;SDS011;7052;51.050;3.716;2023-06-24T03:33:56;7.40;;;6.50;;
13959;SDS011;7052;51.050;3.716;2023-06-24T03:36:23;7.68;;;6.50;;
13959;SDS011;7052;51.050;3.716;2023-06-24T03:38:50;13.13;;;7.68;;
13959;SDS011;7052;51.050;3.716;2023-06-24T03:41:17;10.60;;;7.03;;
13959;SDS011;7052;51.050;3.716;2023-06-24T03:43:44;8.70;;;6.97;;
13959;SDS011;7052;51.050;3.716;2023-06-24T03:46:14;9.02;;;7.18;;
13959;SDS011;7052;51.050;3.716;2023-06-24T03:48:41;8.23;;;6.95;;
13959;SDS011;7052;51.050;3.716;2023-06-24T03:51:08;10.25;;;7.32;;
13959;SDS011;7052;51.050;3.716;2023-06-24T03:53:37;8.23;;;7.43;;
13959;SDS011;7052;51.050;3.716;2023-06-24T03:56:06;9.55;;;6.97;;
13959;SDS011;7052;51.050;3.716;2023-06-24T03:58:33;7.60;;;6.60;;
13959;SDS011;7052;51.050;3.716;2023-06-24T04:01:02;9.35;;;7.38;;
13959;SDS011;7052;51.050;3.716;2023-06-24T04:03:32;9.52;;;7.38;;
13959;SDS011;7052;51.050;3.716;2023-06-24T04:05:59;8.00;;;7.05;;
13959;SDS011;7052;51.050;3.716;2023-06-24T04:08:27;8.65;;;6.93;;
13959;SDS011;7052;51.050;3.716;2023-06-24T04:10:55;9.65;;;7.32;;
13959;SDS011;7052;51.050;3.716;2023-06-24T04:13:24;9.30;;;7.75;;
13959;SDS011;7052;51.050;3.716;2023-06-24T04:15:51;11.70;;;7.95;;
13959;SDS011;7052;51.050;3.716;2023-06-24T04:18:19;8.70;;;7.28;;
13959;SDS011;7052;51.050;3.716;2023-06-24T04:20:50;9.30;;;7.95;;
13959;SDS011;7052;51.050;3.716;2023-06-24T04:23:17;8.23;;;6.93;;
13959;SDS011;7052;51.050;3.716;2023-06-24T04:25:45;10.43;;;6.93;;
13959;SDS011;7052;51.050;3.716;2023-06-24T04:28:12;9.52;;;7.15;;
13959;SDS011;7052;51.050;3.716;2023-06-24T04:30:39;10.43;;;7.53;;
13959;SDS011;7052;51.050;3.716;2023-06-24T04:33:07;8.85;;;7.70;;
13959;SDS011;7052;51.050;3.716;2023-06-24T04:35:35;8.65;;;7.53;;
13959;SDS011;7052;51.050;3.716;2023-06-24T04:38:03;8.75;;;7.47;;
13959;SDS011;7052;51.050;3.716;2023-06-24T04:40:32;8.60;;;7.70;;
13959;SDS011;7052;51.050;3.716;2023-06-24T04:42:59;8.60;;;6.97;;
13959;SDS011;7052;51.050;3.716;2023-06-24T04:45:26;14.68;;;8.35;;
13959;SDS011;7052;51.050;3.716;2023-06-24T04:47:53;10.93;;;7.55;;
13959;SDS011;7052;51.050;3.716;2023-06-24T04:50:21;12.25;;;7.90;;
13959;SDS011;7052;51.050;3.716;2023-06-24T04:52:51;11.63;;;7.85;;
13959;SDS011;7052;51.050;3.716;2023-06-24T04:55:21;7.60;;;6.85;;
13959;SDS011;7052;51.050;3.716;2023-06-24T04:57:48;9.50;;;7.10;;
13959;SDS011;7052;51.050;3.716;2023-06-24T05:00:15;16.17;;;8.15;;
13959;SDS011;7052;51.050;3.716;2023-06-24T05:02:43;15.90;;;8.20;;
13959;SDS011;7052;51.050;3.716;2023-06-24T05:05:10;9.30;;;8.10;;
13959;SDS011;7052;51.050;3.716;2023-06-24T05:07:37;9.05;;;7.90;;
13959;SDS011;7052;51.050;3.716;2023-06-24T05:10:04;10.10;;;8.13;;
13959;SDS011;7052;51.050;3.716;2023-06-24T05:12:33;12.00;;;8.00;;
13959;SDS011;7052;51.050;3.716;2023-06-24T05:15:02;9.68;;;7.82;;
13959;SDS011;7052;51.050;3.716;2023-06-24T05:17:29;10.13;;;7.93;;
13959;SDS011;7052;51.050;3.716;2023-06-24T05:19:56;8.95;;;7.90;;
13959;SDS011;7052;51.050;3.716;2023-06-24T05:22:23;9.57;;;7.88;;
13959;SDS011;7052;51.050;3.716;2023-06-24T05:24:52;11.00;;;7.97;;
13959;SDS011;7052;51.050;3.716;2023-06-24T05:27:21;9.50;;;8.48;;
13959;SDS011;7052;51.050;3.716;2023-06-24T05:29:50;10.70;;;7.85;;
13959;SDS011;7052;51.050;3.716;2023-06-24T05:32:19;10.73;;;8.32;;
13959;SDS011;7052;51.050;3.716;2023-06-24T05:34:48;10.65;;;7.80;;
13959;SDS011;7052;51.050;3.716;2023-06-24T05:37:18;10.98;;;8.48;;
13959;SDS011;7052;51.050;3.716;2023-06-24T05:39:45;11.07;;;8.95;;
13959;SDS011;7052;51.050;3.716;2023-06-24T05:42:12;12.45;;;8.43;;
13959;SDS011;7052;51.050;3.716;2023-06-24T05:44:40;10.30;;;9.07;;
13959;SDS011;7052;51.050;3.716;2023-06-24T05:47:09;9.93;;;8.05;;
13959;SDS011;7052;51.050;3.716;2023-06-24T05:49:37;11.00;;;8.45;;
13959;SDS011;7052;51.050;3.716;2023-06-24T05:52:06;9.65;;;8.68;;
13959;SDS011;7052;51.050;3.716;2023-06-24T05:54:33;9.35;;;8.35;;
13959;SDS011;7052;51.050;3.716;2023-06-24T05:57:00;9.75;;;8.60;;
13959;SDS011;7052;51.050;3.716;2023-06-24T05:59:32;10.40;;;8.82;;
13959;SDS011;7052;51.050;3.716;2023-06-24T06:01:58;10.93;;;9.05;;
13959;SDS011;7052;51.050;3.716;2023-06-24T06:04:31;11.38;;;8.70;;
13959;SDS011;7052;51.050;3.716;2023-06-24T06:06:58;9.38;;;8.48;;
13959;SDS011;7052;51.050;3.716;2023-06-24T06:09:27;10.35;;;8.77;;
13959;SDS011;7052;51.050;3.716;2023-06-24T06:11:54;9.43;;;7.80;;
13959;SDS011;7052;51.050;3.716;2023-06-24T06:14:21;8.52;;;7.63;;
13959;SDS011;7052;51.050;3.716;2023-06-24T06:16:48;10.13;;;7.82;;
13959;SDS011;7052;51.050;3.716;2023-06-24T06:19:15;9.98;;;8.23;;
13959;SDS011;7052;51.050;3.716;2023-06-24T06:21:44;9.10;;;8.13;;
13959;SDS011;7052;51.050;3.716;2023-06-24T06:24:11;11.00;;;8.60;;
13959;SDS011;7052;51.050;3.716;2023-06-24T06:26:41;10.35;;;8.75;;
13959;SDS011;7052;51.050;3.716;2023-06-24T06:29:09;9.52;;;8.52;;
13959;SDS011;7052;51.050;3.716;2023-06-24T06:31:36;14.63;;;9.15;;
13959;SDS011;7052;51.050;3.716;2023-06-24T06:34:03;9.75;;;8.23;;
13959;SDS011;7052;51.050;3.716;2023-06-24T06:36:30;9.45;;;8.65;;
13959;SDS011;7052;51.050;3.716;2023-06-24T06:39:01;10.55;;;9.48;;
13959;SDS011;7052;51.050;3.716;2023-06-24T06:41:28;9.30;;;8.40;;
13959;SDS011;7052;51.050;3.716;2023-06-24T06:43:55;9.55;;;8.65;;
13959;SDS011;7052;51.050;3.716;2023-06-24T06:46:23;10.90;;;9.77;;
13959;SDS011;7052;51.050;3.716;2023-06-24T06:48:50;11.55;;;9.50;;
13959;SDS011;7052;51.050;3.716;2023-06-24T06:51:17;10.30;;;9.30;;
13959;SDS011;7052;51.050;3.716;2023-06-24T06:53:45;10.02;;;9.13;;
13959;SDS011;7052;51.050;3.716;2023-06-24T06:56:17;10.25;;;8.90;;
13959;SDS011;7052;51.050;3.716;2023-06-24T06:58:44;10.27;;;9.18;;
13959;SDS011;7052;51.050;3.716;2023-06-24T07:01:12;11.00;;;9.07;;
13959;SDS011;7052;51.050;3.716;2023-06-24T07:03:39;14.18;;;9.77;;
13959;SDS011;7052;51.050;3.716;2023-06-24T07:06:06;9.77;;;8.85;;
13959;SDS011;7052;51.050;3.716;2023-06-24T07:08:33;14.82;;;9.43;;
13959;SDS011;7052;51.050;3.716;2023-06-24T07:11:00;10.65;;;9.57;;
13959;SDS011;7052;51.050;3.716;2023-06-24T07:13:29;11.52;;;9.50;;
13959;SDS011;7052;51.050;3.716;2023-06-24T07:15:56;10.82;;;8.88;;
13959;SDS011;7052;51.050;3.716;2023-06-24T07:18:23;23.25;;;11.13;;
13959;SDS011;7052;51.050;3.716;2023-06-24T07:20:55;10.90;;;9.82;;
13959;SDS011;7052;51.050;3.716;2023-06-24T07:23:22;10.82;;;9.70;;
13959;SDS011;7052;51.050;3.716;2023-06-24T07:25:51;11.02;;;9.95;;
13959;SDS011;7052;51.050;3.716;2023-06-24T07:28:19;13.70;;;9.30;;
13959;SDS011;7052;51.050;3.716;2023-06-24T07:30:48;10.93;;;9.52;;
13959;SDS011;7052;51.050;3.716;2023-06-24T07:33:15;11.75;;;9.30;;
13959;SDS011;7052;51.050;3.716;2023-06-24T07:35:44;12.27;;;9.57;;
13959;SDS011;7052;51.050;3.716;2023-06-24T07:38:11;10.77;;;9.70;;
13959;SDS011;7052;51.050;3.716;2023-06-24T07:40:39;12.40;;;10.10;;
13959;SDS011;7052;51.050;3.716;2023-06-24T07:43:06;12.07;;;10.02;;
13959;SDS011;7052;51.050;3.716;2023-06-24T07:45:35;11.10;;;9.63;;
13959;SDS011;7052;51.050;3.716;2023-06-24T07:48:05;13.95;;;10.43;;
13959;SDS011;7052;51.050;3.716;2023-06-24T07:50:34;13.52;;;10.10;;
13959;SDS011;7052;51.050;3.716;2023-06-24T07:53:03;10.98;;;9.88;;
13959;SDS011;7052;51.050;3.716;2023-06-24T07:55:31;12.48;;;9.93;;
13959;SDS011;7052;51.050;3.716;2023-06-24T07:58:00;12.25;;;10.57;;
13959;SDS011;7052;51.050;3.716;2023-06-24T08:00:28;11.68;;;10.57;;
13959;SDS011;7052;51.050;3.716;2023-06-24T08:02:55;11.80;;;10.52;;
13959;SDS011;7052;51.050;3.716;2023-06-24T08:05:25;11.88;;;10.63;;
13959;SDS011;7052;51.050;3.716;2023-06-24T08:07:53;11.57;;;10.48;;
13959;SDS011;7052;51.050;3.716;2023-06-24T08:10:20;12.65;;;11.10;;
13959;SDS011;7052;51.050;3.716;2023-06-24T08:12:47;12.50;;;9.88;;
13959;SDS011;7052;51.050;3.716;2023-06-24T08:15:14;12.50;;;11.20;;
13959;SDS011;7052;51.050;3.716;2023-06-24T08:17:42;14.80;;;10.48;;
13959;SDS011;7052;51.050;3.716;2023-06-24T08:20:09;11.68;;;10.48;;
13959;SDS011;7052;51.050;3.716;2023-06-24T08:22:38;12.88;;;11.07;;
13959;SDS011;7052;51.050;3.716;2023-06-24T08:25:07;14.48;;;10.95;;
13959;SDS011;7052;51.050;3.716;2023-06-24T08:27:35;12.13;;;10.52;;
13959;SDS011;7052;51.050;3.716;2023-06-24T08:30:04;15.65;;;11.02;;
13959;SDS011;7052;51.050;3.716;2023-06-24T08:32:32;12.55;;;10.27;;
13959;SDS011;7052;51.050;3.716;2023-06-24T08:34:59;11.93;;;10.73;;
13959;SDS011;7052;51.050;3.716;2023-06-24T08:37:26;16.40;;;10.63;;
13959;SDS011;7052;51.050;3.716;2023-06-24T08:39:55;12.68;;;11.27;;
13959;SDS011;7052;51.050;3.716;2023-06-24T08:42:22;14.00;;;11.15;;
13959;SDS011;7052;51.050;3.716;2023-06-24T08:44:49;11.25;;;10.02;;
13959;SDS011;7052;51.050;3.716;2023-06-24T08:47:16;11.73;;;10.25;;
13959;SDS011;7052;51.050;3.716;2023-06-24T08:49:46;11.75;;;9.85;;
13959;SDS011;7052;51.050;3.716;2023-06-24T08:52:16;12.35;;;8.88;;
13959;SDS011;7052;51.050;3.716;2023-06-24T08:54:46;14.73;;;10.40;;
13959;SDS011;7052;51.050;3.716;2023-06-24T08:57:20;9.85;;;8.40;;
13959;SDS011;7052;51.050;3.716;2023-06-24T08:59:49;10.25;;;8.88;;
13959;SDS011;7052;51.050;3.716;2023-06-24T09:02:17;11.50;;;9.73;;
13959;SDS011;7052;51.050;3.716;2023-06-24T09:04:44;11.68;;;8.85;;
13959;SDS011;7052;51.050;3.716;2023-06-24T09:07:11;11.10;;;9.00;;
13959;SDS011;7052;51.050;3.716;2023-06-24T09:09:43;11.90;;;9.65;;
13959;SDS011;7052;51.050;3.716;2023-06-24T09:12:11;10.73;;;9.25;;
13959;SDS011;7052;51.050;3.716;2023-06-24T09:14:43;11.43;;;8.95;;
13959;SDS011;7052;51.050;3.716;2023-06-24T09:17:16;15.65;;;9.88;;
13959;SDS011;7052;51.050;3.716;2023-06-24T09:19:47;11.45;;;9.55;;
13959;SDS011;7052;51.050;3.716;2023-06-24T09:22:15;12.45;;;9.82;;
13959;SDS011;7052;51.050;3.716;2023-06-24T09:24:48;12.95;;;8.68;;
13959;SDS011;7052;51.050;3.716;2023-06-24T09:27:15;10.52;;;8.82;;
13959;SDS011;7052;51.050;3.716;2023-06-24T09:29:46;11.80;;;8.52;;
13959;SDS011;7052;51.050;3.716;2023-06-24T09:32:15;29.40;;;9.30;;
13959;SDS011;7052;51.050;3.716;2023-06-24T09:34:43;13.70;;;8.98;;
13959;SDS011;7052;51.050;3.716;2023-06-24T09:37:12;16.10;;;8.45;;
13959;SDS011;7052;51.050;3.716;2023-06-24T09:39:49;11.88;;;8.50;;
13959;SDS011;7052;51.050;3.716;2023-06-24T09:42:20;10.82;;;8.73;;
13959;SDS011;7052;51.050;3.716;2023-06-24T09:44:53;12.27;;;8.52;;
13959;SDS011;7052;51.050;3.716;2023-06-24T09:47:20;6.93;;;6.22;;
13959;SDS011;7052;51.050;3.716;2023-06-24T09:49:50;8.75;;;7.05;;
13959;SDS011;7052;51.050;3.716;2023-06-24T09:52:19;9.25;;;7.60;;
13959;SDS011;7052;51.050;3.716;2023-06-24T09:54:51;6.97;;;6.25;;
13959;SDS011;7052;51.050;3.716;2023-06-24T09:57:21;7.45;;;6.18;;
13959;SDS011;7052;51.050;3.716;2023-06-24T10:00:01;8.05;;;6.00;;
13959;SDS011;7052;51.050;3.716;2023-06-24T10:02:30;11.15;;;6.20;;
13959;SDS011;7052;51.050;3.716;2023-06-24T10:04:59;5.78;;;4.80;;
13959;SDS011;7052;51.050;3.716;2023-06-24T10:07:27;8.20;;;5.40;;
13959;SDS011;7052;51.050;3.716;2023-06-24T10:10:00;6.15;;;5.55;;
13959;SDS011;7052;51.050;3.716;2023-06-24T10:12:29;6.40;;;5.40;;
13959;SDS011;7052;51.050;3.716;2023-06-24T10:15:01;6.00;;;4.85;;
13959;SDS011;7052;51.050;3.716;2023-06-24T10:17:29;7.60;;;6.03;;
13959;SDS011;7052;51.050;3.716;2023-06-24T10:19:56;8.25;;;4.75;;
13959;SDS011;7052;51.050;3.716;2023-06-24T10:22:23;7.78;;;5.00;;
13959;SDS011;7052;51.050;3.716;2023-06-24T10:24:59;7.65;;;4.65;;
13959;SDS011;7052;51.050;3.716;2023-06-24T10:27:27;8.32;;;6.03;;
13959;SDS011;7052;51.050;3.716;2023-06-24T10:30:03;6.68;;;5.70;;
13959;SDS011;7052;51.050;3.716;2023-06-24T10:32:39;6.78;;;4.90;;
13959;SDS011;7052;51.050;3.716;2023-06-24T10:35:20;6.47;;;4.93;;
13959;SDS011;7052;51.050;3.716;2023-06-24T10:37:53;6.63;;;5.30;;
13959;SDS011;7052;51.050;3.716;2023-06-24T10:43:23;8.00;;;5.68;;
13959;SDS011;7052;51.050;3.716;2023-06-24T10:45:54;5.78;;;5.18;;
13959;SDS011;7052;51.050;3.716;2023-06-24T10:48:22;6.57;;;5.28;;
13959;SDS011;7052;51.050;3.716;2023-06-24T10:50:50;7.82;;;5.18;;
13959;SDS011;7052;51.050;3.716;2023-06-24T10:53:21;5.78;;;4.70;;
13959;SDS011;7052;51.050;3.716;2023-06-24T10:55:49;5.72;;;5.10;;
13959;SDS011;7052;51.050;3.716;2023-06-24T10:58:16;6.50;;;4.55;;
13959;SDS011;7052;51.050;3.716;2023-06-24T11:00:44;6.13;;;5.53;;
13959;SDS011;7052;51.050;3.716;2023-06-24T11:03:13;7.40;;;6.00;;
13959;SDS011;7052;51.050;3.716;2023-06-24T11:05:41;8.10;;;6.05;;
13959;SDS011;7052;51.050;3.716;2023-06-24T11:08:12;6.53;;;5.93;;
13959;SDS011;7052;51.050;3.716;2023-06-24T11:10:44;8.43;;;6.22;;
13959;SDS011;7052;51.050;3.716;2023-06-24T11:13:11;8.10;;;6.70;;
13959;SDS011;7052;51.050;3.716;2023-06-24T11:15:40;7.38;;;6.40;;
13959;SDS011;7052;51.050;3.716;2023-06-24T11:18:07;7.25;;;5.32;;
13959;SDS011;7052;51.050;3.716;2023-06-24T11:20:39;6.10;;;5.50;;
13959;SDS011;7052;51.050;3.716;2023-06-24T11:23:09;9.43;;;6.15;;
13959;SDS011;7052;51.050;3.716;2023-06-24T11:25:40;6.53;;;5.72;;
13959;SDS011;7052;51.050;3.716;2023-06-24T11:28:12;6.13;;;5.50;;
13959;SDS011;7052;51.050;3.716;2023-06-24T11:30:40;7.53;;;6.43;;
13959;SDS011;7052;51.050;3.716;2023-06-24T11:33:07;8.02;;;6.65;;
13959;SDS011;7052;51.050;3.716;2023-06-24T11:35:34;7.72;;;6.30;;
13959;SDS011;7052;51.050;3.716;2023-06-24T11:38:03;7.00;;;5.25;;
13959;SDS011;7052;51.050;3.716;2023-06-24T11:40:33;6.32;;;5.30;;
13959;SDS011;7052;51.050;3.716;2023-06-24T11:43:03;6.13;;;5.53;;
13959;SDS011;7052;51.050;3.716;2023-06-24T11:45:35;8.27;;;7.05;;
13959;SDS011;7052;51.050;3.716;2023-06-24T11:48:09;10.07;;;7.65;;
13959;SDS011;7052;51.050;3.716;2023-06-24T11:50:36;7.47;;;6.38;;
13959;SDS011;7052;51.050;3.716;2023-06-24T11:53:05;7.20;;;5.82;;
13959;SDS011;7052;51.050;3.716;2023-06-24T11:55:31;7.78;;;6.10;;
13959;SDS011;7052;51.050;3.716;2023-06-24T11:57:59;7.43;;;5.93;;
13959;SDS011;7052;51.050;3.716;2023-06-24T12:00:31;7.22;;;5.05;;
13959;SDS011;7052;51.050;3.716;2023-06-24T12:03:01;6.25;;;5.38;;
13959;SDS011;7052;51.050;3.716;2023-06-24T12:05:29;6.63;;;4.60;;
13959;SDS011;7052;51.050;3.716;2023-06-24T12:07:58;5.25;;;4.75;;
13959;SDS011;7052;51.050;3.716;2023-06-24T12:10:29;5.82;;;4.80;;
13959;SDS011;7052;51.050;3.716;2023-06-24T12:12:58;4.82;;;4.40;;
13959;SDS011;7052;51.050;3.716;2023-06-24T12:15:26;7.13;;;4.70;;
13959;SDS011;7052;51.050;3.716;2023-06-24T12:18:02;4.78;;;3.55;;
13959;SDS011;7052;51.050;3.716;2023-06-24T12:20:31;6.93;;;6.15;;
13959;SDS011;7052;51.050;3.716;2023-06-24T12:23:01;5.97;;;4.90;;
13959;SDS011;7052;51.050;3.716;2023-06-24T12:25:31;6.25;;;5.05;;
13959;SDS011;7052;51.050;3.716;2023-06-24T12:27:58;6.10;;;4.13;;
13959;SDS011;7052;51.050;3.716;2023-06-24T12:30:27;5.63;;;4.78;;
13959;SDS011;7052;51.050;3.716;2023-06-24T12:32:57;5.47;;;4.97;;
13959;SDS011;7052;51.050;3.716;2023-06-24T12:35:25;6.07;;;5.05;;
13959;SDS011;7052;51.050;3.716;2023-06-24T12:37:53;6.85;;;6.20;;
13959;SDS011;7052;51.050;3.716;2023-06-24T12:40:20;6.60;;;5.50;;
13959;SDS011;7052;51.050;3.716;2023-06-24T12:42:49;7.82;;;4.75;;
13959;SDS011;7052;51.050;3.716;2023-06-24T12:45:18;7.68;;;5.30;;
13959;SDS011;7052;51.050;3.716;2023-06-24T12:47:46;7.65;;;4.63;;
13959;SDS011;7052;51.050;3.716;2023-06-24T12:50:15;6.72;;;4.72;;
13959;SDS011;7052;51.050;3.716;2023-06-24T12:52:42;5.70;;;5.20;;
13959;SDS011;7052;51.050;3.716;2023-06-24T12:55:09;9.18;;;4.95;;
13959;SDS011;7052;51.050;3.716;2023-06-24T12:57:41;7.82;;;4.60;;
13959;SDS011;7052;51.050;3.716;2023-06-24T13:00:16;5.35;;;4.85;;
13959;SDS011;7052;51.050;3.716;2023-06-24T13:02:46;9.00;;;5.18;;
13959;SDS011;7052;51.050;3.716;2023-06-24T13:05:14;5.25;;;4.75;;
13959;SDS011;7052;51.050;3.716;2023-06-24T13:07:41;5.47;;;4.40;;
13959;SDS011;7052;51.050;3.716;2023-06-24T13:10:09;5.05;;;4.47;;
13959;SDS011;7052;51.050;3.716;2023-06-24T13:12:38;6.32;;;4.80;;
13959;SDS011;7052;51.050;3.716;2023-06-24T13:15:06;4.47;;;4.07;;
13959;SDS011;7052;51.050;3.716;2023-06-24T13:17:36;6.20;;;3.95;;
13959;SDS011;7052;51.050;3.716;2023-06-24T13:20:04;4.90;;;4.50;;
13959;SDS011;7052;51.050;3.716;2023-06-24T13:22:34;4.57;;;4.18;;
13959;SDS011;7052;51.050;3.716;2023-06-24T13:25:01;6.25;;;5.38;;
13959;SDS011;7052;51.050;3.716;2023-06-24T13:27:28;5.70;;;4.90;;
13959;SDS011;7052;51.050;3.716;2023-06-24T13:29:56;5.95;;;5.38;;
13959;SDS011;7052;51.050;3.716;2023-06-24T13:32:23;7.82;;;5.30;;
13959;SDS011;7052;51.050;3.716;2023-06-24T13:34:51;4.45;;;4.05;;
13959;SDS011;7052;51.050;3.716;2023-06-24T13:37:18;5.45;;;4.65;;
13959;SDS011;7052;51.050;3.716;2023-06-24T13:39:45;5.75;;;3.33;;
13959;SDS011;7052;51.050;3.716;2023-06-24T13:42:13;6.07;;;4.38;;
13959;SDS011;7052;51.050;3.716;2023-06-24T13:44:43;4.32;;;3.88;;
13959;SDS011;7052;51.050;3.716;2023-06-24T13:47:10;4.85;;;3.80;;
13959;SDS011;7052;51.050;3.716;2023-06-24T13:49:40;80.97;;;11.30;;
13959;SDS011;7052;51.050;3.716;2023-06-24T13:52:10;10.73;;;4.45;;
13959;SDS011;7052;51.050;3.716;2023-06-24T13:54:37;4.25;;;3.42;;
13959;SDS011;7052;51.050;3.716;2023-06-24T13:57:05;4.38;;;3.60;;
13959;SDS011;7052;51.050;3.716;2023-06-24T13:59:32;4.97;;;3.40;;
13959;SDS011;7052;51.050;3.716;2023-06-24T14:01:59;4.47;;;3.78;;
13959;SDS011;7052;51.050;3.716;2023-06-24T14:04:27;4.88;;;4.38;;
13959;SDS011;7052;51.050;3.716;2023-06-24T14:06:54;7.53;;;4.97;;
13959;SDS011;7052;51.050;3.716;2023-06-24T14:09:26;4.65;;;4.10;;
13959;SDS011;7052;51.050;3.716;2023-06-24T14:11:53;5.63;;;4.28;;
13959;SDS011;7052;51.050;3.716;2023-06-24T14:14:22;6.22;;;4.40;;
13959;SDS011;7052;51.050;3.716;2023-06-24T14:16:49;5.88;;;4.45;;
13959;SDS011;7052;51.050;3.716;2023-06-24T14:19:18;7.60;;;4.35;;
13959;SDS011;7052;51.050;3.716;2023-06-24T14:21:45;5.30;;;4.57;;
13959;SDS011;7052;51.050;3.716;2023-06-24T14:24:16;15.77;;;5.35;;
13959;SDS011;7052;51.050;3.716;2023-06-24T14:26:45;6.13;;;4.35;;
13959;SDS011;7052;51.050;3.716;2023-06-24T14:29:14;5.13;;;3.70;;
13959;SDS011;7052;51.050;3.716;2023-06-24T14:31:42;5.97;;;4.45;;
13959;SDS011;7052;51.050;3.716;2023-06-24T14:34:09;10.55;;;5.00;;
13959;SDS011;7052;51.050;3.716;2023-06-24T14:36:38;5.45;;;4.70;;
13959;SDS011;7052;51.050;3.716;2023-06-24T14:39:05;6.00;;;4.70;;
13959;SDS011;7052;51.050;3.716;2023-06-24T14:41:33;5.10;;;4.60;;
13959;SDS011;7052;51.050;3.716;2023-06-24T14:44:01;4.72;;;3.45;;
13959;SDS011;7052;51.050;3.716;2023-06-24T14:46:28;5.03;;;4.10;;
13959;SDS011;7052;51.050;3.716;2023-06-24T14:48:55;6.00;;;4.10;;
13959;SDS011;7052;51.050;3.716;2023-06-24T14:51:23;5.18;;;3.95;;
13959;SDS011;7052;51.050;3.716;2023-06-24T14:53:52;6.72;;;4.00;;
13959;SDS011;7052;51.050;3.716;2023-06-24T14:56:19;4.63;;;3.30;;
13959;SDS011;7052;51.050;3.716;2023-06-24T14:58:47;4.80;;;4.15;;
13959;SDS011;7052;51.050;3.716;2023-06-24T15:01:17;4.18;;;3.55;;
13959;SDS011;7052;51.050;3.716;2023-06-24T15:03:45;7.32;;;3.90;;
13959;SDS011;7052;51.050;3.716;2023-06-24T15:06:12;4.50;;;3.60;;
13959;SDS011;7052;51.050;3.716;2023-06-24T15:08:44;4.90;;;3.58;;
13959;SDS011;7052;51.050;3.716;2023-06-24T15:11:11;4.85;;;3.17;;
13959;SDS011;7052;51.050;3.716;2023-06-24T15:13:40;4.28;;;3.15;;